createdAt,value
2018-03-29T00:01:21.552Z,99.90
2018-03-29T00:03:50.356Z,99.90
2018-03-29T00:06:20.012Z,99.90
2018-03-29T00:08:48.807Z,99.90
2018-03-29T00:11:17.615Z,99.90
2018-03-29T00:13:46.430Z,99.90
2018-03-29T00:16:15.254Z,99.90
2018-03-29T00:18:44.847Z,99.90
2018-03-29T00:21:13.652Z,99.90
2018-03-29T00:23:43.219Z,99.90
2018-03-29T00:26:12.028Z,99.90
2018-03-29T00:28:40.837Z,99.90
2018-03-29T00:31:10.447Z,99.90
2018-03-29T00:33:40.680Z,99.90
2018-03-29T00:36:10.244Z,99.90
2018-03-29T00:38:39.075Z,99.90
2018-03-29T00:41:08.794Z,99.90
2018-03-29T00:43:38.360Z,99.90
2018-03-29T00:46:07.168Z,99.90
2018-03-29T00:48:37.369Z,99.90
2018-03-29T00:51:06.175Z,99.90
2018-03-29T00:53:45.168Z,99.90
2018-03-29T00:56:14.033Z,99.90
2018-03-29T00:58:42.843Z,99.90
2018-03-29T01:01:12.882Z,99.90
2018-03-29T01:03:41.687Z,99.90
2018-03-29T01:06:10.483Z,99.90
2018-03-29T01:08:39.283Z,99.90
2018-03-29T01:11:09.071Z,99.90
2018-03-29T01:13:37.868Z,99.90
2018-03-29T01:16:06.698Z,99.90
2018-03-29T01:18:35.509Z,99.90
2018-03-29T01:21:04.310Z,99.90
2018-03-29T01:23:33.127Z,99.90
2018-03-29T01:26:01.983Z,99.90
2018-03-29T01:28:31.695Z,99.90
2018-03-29T01:31:00.177Z,99.90
2018-03-29T01:33:28.984Z,99.90
2018-03-29T01:35:57.812Z,99.90
2018-03-29T01:38:27.375Z,99.90
2018-03-29T01:40:56.200Z,99.90
2018-03-29T01:43:25.764Z,99.90
2018-03-29T01:45:54.585Z,99.90
2018-03-29T01:48:23.405Z,99.90
2018-03-29T01:50:52.217Z,99.90
2018-03-29T01:53:21.095Z,99.90
2018-03-29T01:55:50.719Z,99.90
2018-03-29T01:58:19.521Z,99.90
2018-03-29T02:00:48.334Z,99.90
2018-03-29T02:03:17.144Z,99.90
2018-03-29T02:05:45.959Z,99.90
2018-03-29T02:08:15.519Z,99.90
2018-03-29T02:10:44.344Z,99.90
2018-03-29T02:13:13.123Z,99.90
2018-03-29T02:15:41.934Z,99.90
2018-03-29T02:18:11.475Z,99.90
2018-03-29T02:20:40.297Z,99.90
2018-03-29T02:23:09.112Z,99.90
2018-03-29T02:25:38.707Z,99.90
2018-03-29T02:28:08.679Z,99.90
2018-03-29T02:30:37.487Z,99.90
2018-03-29T02:33:06.318Z,99.90
2018-03-29T02:35:35.351Z,99.90
2018-03-29T02:38:04.179Z,99.90
2018-03-29T02:40:33.005Z,99.90
2018-03-29T02:43:01.828Z,99.90
2018-03-29T02:45:30.640Z,99.90
2018-03-29T02:47:59.476Z,99.90
2018-03-29T02:50:28.271Z,99.90
2018-03-29T02:52:57.075Z,99.90
2018-03-29T02:55:25.884Z,99.90
2018-03-29T02:57:54.361Z,99.90
2018-03-29T03:00:23.186Z,99.90
2018-03-29T03:02:52.000Z,99.90
2018-03-29T03:05:20.820Z,99.90
2018-03-29T03:07:49.639Z,99.90
2018-03-29T03:10:18.457Z,99.90
2018-03-29T03:12:48.038Z,99.90
2018-03-29T03:15:16.850Z,99.90
2018-03-29T03:17:46.420Z,99.90
2018-03-29T03:20:20.466Z,99.90
2018-03-29T03:22:49.288Z,99.90
2018-03-29T03:25:18.096Z,99.90
2018-03-29T03:27:46.920Z,99.90
2018-03-29T03:30:15.727Z,99.90
2018-03-29T03:32:45.299Z,99.90
2018-03-29T03:35:14.121Z,99.90
2018-03-29T03:37:42.931Z,99.90
2018-03-29T03:40:12.509Z,99.90
2018-03-29T03:42:41.322Z,99.90
2018-03-29T03:45:10.920Z,99.90
2018-03-29T03:47:39.732Z,99.90
2018-03-29T03:50:08.541Z,99.90
2018-03-29T03:52:37.351Z,99.90
2018-03-29T03:55:05.960Z,99.90
2018-03-29T03:57:34.775Z,99.90
2018-03-29T04:00:03.681Z,99.90
2018-03-29T04:02:32.509Z,99.90
2018-03-29T04:05:01.312Z,99.90
2018-03-29T04:07:30.149Z,99.90
2018-03-29T04:09:59.739Z,99.90
2018-03-29T04:12:29.322Z,99.90
2018-03-29T04:14:58.155Z,99.90
2018-03-29T04:17:26.964Z,99.90
2018-03-29T04:19:55.778Z,99.90
2018-03-29T04:22:24.836Z,99.90
2018-03-29T04:24:53.704Z,99.90
2018-03-29T04:27:22.503Z,99.90
2018-03-29T04:29:52.079Z,99.90
2018-03-29T04:32:20.881Z,99.90
2018-03-29T04:34:49.689Z,99.90
2018-03-29T04:37:19.271Z,99.90
2018-03-29T04:39:48.894Z,99.90
2018-03-29T04:42:18.246Z,99.90
2018-03-29T04:44:47.056Z,99.90
2018-03-29T04:47:15.866Z,99.90
2018-03-29T04:49:44.663Z,99.90
2018-03-29T04:52:14.250Z,99.90
2018-03-29T04:54:44.596Z,99.90
2018-03-29T04:57:19.475Z,99.90
2018-03-29T05:02:50.119Z,99.90
2018-03-29T05:05:24.171Z,99.90
2018-03-29T05:07:54.409Z,99.90
2018-03-29T05:10:23.212Z,99.90
2018-03-29T05:12:52.806Z,99.90
2018-03-29T05:15:22.288Z,99.90
2018-03-29T05:27:30.503Z,99.90
2018-03-29T05:29:59.307Z,99.90
2018-03-29T05:32:28.163Z,99.90
2018-03-29T05:34:57.006Z,99.90
2018-03-29T05:37:26.435Z,99.90
2018-03-29T05:39:55.253Z,99.90
2018-03-29T05:42:24.064Z,99.90
2018-03-29T05:44:53.641Z,99.90
2018-03-29T05:47:22.456Z,99.90
2018-03-29T05:49:51.276Z,99.90
2018-03-29T05:52:20.114Z,99.90
2018-03-29T05:54:49.100Z,99.90
2018-03-29T05:57:17.948Z,99.90
2018-03-29T05:59:46.745Z,99.90
2018-03-29T06:02:15.559Z,99.90
2018-03-29T06:08:09.740Z,99.90
2018-03-29T06:10:38.541Z,99.90
2018-03-29T06:13:07.355Z,99.90
2018-03-29T06:15:36.171Z,99.90
2018-03-29T06:18:04.412Z,99.90
2018-03-29T06:20:33.210Z,99.90
2018-03-29T06:23:02.037Z,99.90
2018-03-29T06:25:31.604Z,99.90
2018-03-29T06:28:00.424Z,99.90
2018-03-29T06:30:29.244Z,99.90
2018-03-29T06:32:58.844Z,99.90
2018-03-29T06:35:28.416Z,99.90
2018-03-29T06:37:57.225Z,99.90
2018-03-29T06:40:26.040Z,99.90
2018-03-29T06:42:54.860Z,99.90
2018-03-29T06:45:23.692Z,99.90
2018-03-29T06:47:52.492Z,99.90
2018-03-29T06:50:21.281Z,99.90
2018-03-29T06:52:50.079Z,99.20
2018-03-29T06:55:19.655Z,98.90
2018-03-29T06:57:48.457Z,98.90
2018-03-29T07:00:16.949Z,99.70
2018-03-29T07:02:46.516Z,97.10
2018-03-29T07:05:15.313Z,97.00
2018-03-29T07:07:45.312Z,93.90
2018-03-29T07:10:14.871Z,93.40
2018-03-29T07:12:43.678Z,93.40
2018-03-29T07:15:12.495Z,91.70
2018-03-29T07:17:41.075Z,91.90
2018-03-29T07:20:09.878Z,93.00
2018-03-29T07:22:38.381Z,94.30
2018-03-29T07:25:07.184Z,94.60
2018-03-29T07:27:35.975Z,94.30
2018-03-29T07:30:04.213Z,90.50
2018-03-29T07:32:33.012Z,87.20
2018-03-29T07:35:01.813Z,82.60
2018-03-29T07:37:30.604Z,87.80
2018-03-29T07:39:59.397Z,82.90
2018-03-29T07:42:28.185Z,83.00
2018-03-29T07:44:56.660Z,84.60
2018-03-29T07:47:25.456Z,83.80
2018-03-29T07:49:54.268Z,90.20
2018-03-29T07:52:23.060Z,91.50
2018-03-29T07:54:51.850Z,90.50
2018-03-29T07:57:20.676Z,91.80
2018-03-29T07:59:49.480Z,91.10
2018-03-29T08:02:18.285Z,93.00
2018-03-29T08:04:47.079Z,93.00
2018-03-29T08:07:15.866Z,91.40
2018-03-29T08:09:44.669Z,90.90
2018-03-29T08:12:13.862Z,91.70
2018-03-29T08:14:42.659Z,92.00
2018-03-29T08:17:11.478Z,94.40
2018-03-29T08:19:41.036Z,94.90
2018-03-29T08:22:09.819Z,94.90
2018-03-29T08:24:38.629Z,95.30
2018-03-29T08:27:08.221Z,96.90
2018-03-29T08:29:37.011Z,96.80
2018-03-29T08:32:05.801Z,97.40
2018-03-29T08:34:34.594Z,97.60
2018-03-29T08:37:03.382Z,98.50
2018-03-29T08:39:32.211Z,98.50
2018-03-29T08:42:01.004Z,98.30
2018-03-29T08:44:29.456Z,98.70
2018-03-29T08:46:58.295Z,97.50
2018-03-29T08:49:27.854Z,97.70
2018-03-29T08:51:56.667Z,97.70
2018-03-29T08:54:24.791Z,97.40
2018-03-29T08:56:53.590Z,97.60
2018-03-29T08:59:22.643Z,97.10
2018-03-29T09:01:52.213Z,96.80
2018-03-29T09:04:20.998Z,96.80
2018-03-29T09:06:49.793Z,96.00
2018-03-29T09:09:18.595Z,95.00
2018-03-29T09:11:47.405Z,96.10
2018-03-29T09:14:16.972Z,95.70
2018-03-29T09:16:46.590Z,95.60
2018-03-29T09:19:15.397Z,95.90
2018-03-29T09:21:43.859Z,95.90
2018-03-29T09:24:12.655Z,93.30
2018-03-29T09:26:41.444Z,95.00
2018-03-29T09:29:10.237Z,95.30
2018-03-29T09:31:39.061Z,94.40
2018-03-29T09:34:08.017Z,94.10
2018-03-29T09:36:36.826Z,94.10
2018-03-29T09:39:04.961Z,94.20
2018-03-29T09:41:33.796Z,94.40
2018-03-29T09:44:02.907Z,93.10
2018-03-29T09:46:32.474Z,86.30
2018-03-29T09:49:01.274Z,86.10
2018-03-29T09:51:29.734Z,86.70
2018-03-29T09:53:59.068Z,90.30
2018-03-29T09:56:27.867Z,87.90
2018-03-29T09:58:57.015Z,82.20
2018-03-29T10:01:25.592Z,84.80
2018-03-29T10:03:59.845Z,79.80
2018-03-29T10:06:29.576Z,74.60
2018-03-29T10:08:59.159Z,73.70
2018-03-29T10:11:27.951Z,73.80
2018-03-29T10:13:56.773Z,71.70
2018-03-29T10:16:26.382Z,76.70
2018-03-29T10:18:55.980Z,73.10
2018-03-29T10:21:25.550Z,69.80
2018-03-29T10:23:54.340Z,69.60
2018-03-29T10:26:23.127Z,70.40
2018-03-29T10:28:51.916Z,73.50
2018-03-29T10:31:20.695Z,74.40
2018-03-29T10:33:49.485Z,73.90
2018-03-29T10:36:18.291Z,66.50
2018-03-29T10:38:47.071Z,68.70
2018-03-29T10:41:15.880Z,66.20
2018-03-29T10:43:44.693Z,66.20
2018-03-29T10:46:14.362Z,65.10
2018-03-29T10:48:43.206Z,65.20
2018-03-29T10:51:12.776Z,64.10
2018-03-29T10:53:44.131Z,64.30
2018-03-29T10:56:13.130Z,63.30
2018-03-29T10:58:41.916Z,62.60
2018-03-29T11:01:10.699Z,60.90
2018-03-29T11:03:39.504Z,61.40
2018-03-29T11:06:08.304Z,59.90
2018-03-29T11:08:37.092Z,62.00
2018-03-29T11:11:06.701Z,63.50
2018-03-29T11:13:36.248Z,61.60
2018-03-29T11:16:04.701Z,61.50
2018-03-29T11:18:33.494Z,61.80
2018-03-29T11:21:02.283Z,60.30
2018-03-29T11:23:31.841Z,59.70
2018-03-29T11:26:00.648Z,59.60
2018-03-29T11:28:29.439Z,58.20
2018-03-29T11:30:58.256Z,57.90
2018-03-29T11:33:27.111Z,56.70
2018-03-29T11:35:55.923Z,55.40
2018-03-29T11:38:25.482Z,56.60
2018-03-29T11:40:54.288Z,56.50
2018-03-29T11:43:23.092Z,55.60
2018-03-29T11:45:51.893Z,56.60
2018-03-29T11:48:20.701Z,56.40
2018-03-29T11:50:49.928Z,55.40
2018-03-29T11:53:18.725Z,56.00
2018-03-29T11:55:47.515Z,56.00
2018-03-29T11:58:15.983Z,56.30
2018-03-29T12:00:44.782Z,57.10
2018-03-29T12:03:13.597Z,57.10
2018-03-29T12:05:42.397Z,56.20
2018-03-29T12:08:11.184Z,57.10
2018-03-29T12:10:39.969Z,57.20
2018-03-29T12:13:08.752Z,56.10
2018-03-29T12:15:37.539Z,60.40
2018-03-29T12:18:06.323Z,60.50
2018-03-29T12:20:35.115Z,56.00
2018-03-29T12:23:03.598Z,57.90
2018-03-29T12:25:32.387Z,58.40
2018-03-29T12:28:01.757Z,58.30
2018-03-29T12:30:30.551Z,57.20
2018-03-29T12:32:59.644Z,58.90
2018-03-29T12:35:30.413Z,55.30
2018-03-29T12:37:59.762Z,53.10
2018-03-29T12:40:29.311Z,52.10
2018-03-29T12:42:58.131Z,52.10
2018-03-29T12:45:27.178Z,52.70
2018-03-29T12:47:55.959Z,54.70
2018-03-29T12:50:25.071Z,55.80
2018-03-29T12:52:53.867Z,55.30
2018-03-29T12:55:33.816Z,53.80
2018-03-29T12:58:09.892Z,51.00
2018-03-29T13:00:39.133Z,49.80
2018-03-29T13:03:08.706Z,51.50
2018-03-29T13:05:38.237Z,51.10
2018-03-29T13:08:06.737Z,49.70
2018-03-29T13:10:36.309Z,48.70
2018-03-29T13:13:05.140Z,48.70
2018-03-29T13:15:34.712Z,49.20
2018-03-29T13:18:03.714Z,49.20
2018-03-29T13:20:32.515Z,49.70
2018-03-29T13:23:02.075Z,51.20
2018-03-29T13:25:32.067Z,51.20
2018-03-29T13:28:00.858Z,49.10
2018-03-29T13:30:29.431Z,48.90
2018-03-29T13:32:58.768Z,50.40
2018-03-29T13:35:27.560Z,50.40
2018-03-29T13:37:56.381Z,51.20
2018-03-29T13:40:25.175Z,50.50
2018-03-29T13:42:54.754Z,51.70
2018-03-29T13:45:23.555Z,51.70
2018-03-29T13:47:52.376Z,51.70
2018-03-29T13:50:21.992Z,51.70
2018-03-29T13:52:51.608Z,51.80
2018-03-29T13:55:21.205Z,52.90
2018-03-29T13:57:50.754Z,53.10
2018-03-29T14:00:20.520Z,53.00
2018-03-29T14:02:50.361Z,52.80
2018-03-29T14:05:19.169Z,52.80
2018-03-29T14:07:47.962Z,53.20
2018-03-29T14:10:16.766Z,53.30
2018-03-29T14:12:45.562Z,53.50
2018-03-29T14:15:14.758Z,53.00
2018-03-29T14:17:43.605Z,52.50
2018-03-29T14:20:12.552Z,53.00
2018-03-29T14:22:41.350Z,52.30
2018-03-29T14:25:10.143Z,51.40
2018-03-29T14:27:39.740Z,51.90
2018-03-29T14:30:08.543Z,51.80
2018-03-29T14:32:37.328Z,52.20
2018-03-29T14:35:06.124Z,52.20
2018-03-29T14:37:35.933Z,52.60
2018-03-29T14:40:05.511Z,52.90
2018-03-29T14:42:34.329Z,52.90
2018-03-29T14:45:03.369Z,53.00
2018-03-29T14:47:33.194Z,53.50
2018-03-29T14:50:02.223Z,53.10
2018-03-29T14:52:30.819Z,52.90
2018-03-29T14:55:04.544Z,52.60
2018-03-29T14:57:35.774Z,53.00
2018-03-29T15:00:04.284Z,54.20
2018-03-29T15:02:33.090Z,54.50
2018-03-29T15:05:02.926Z,54.80
2018-03-29T15:07:32.923Z,55.30
2018-03-29T15:10:03.038Z,55.30
2018-03-29T15:12:31.848Z,54.60
2018-03-29T15:15:01.491Z,54.80
2018-03-29T15:17:30.307Z,54.80
2018-03-29T15:20:00.033Z,55.80
2018-03-29T15:22:28.844Z,55.70
2018-03-29T15:24:58.321Z,56.30
2018-03-29T15:27:27.914Z,55.90
2018-03-29T15:29:57.252Z,55.90
2018-03-29T15:32:26.082Z,55.80
2018-03-29T15:34:55.679Z,54.00
2018-03-29T15:37:24.552Z,53.80
2018-03-29T15:39:53.490Z,51.80
2018-03-29T15:42:22.699Z,52.10
2018-03-29T15:44:52.291Z,51.20
2018-03-29T15:47:21.267Z,51.20
2018-03-29T15:49:50.305Z,51.20
2018-03-29T15:52:19.189Z,51.70
2018-03-29T15:54:48.779Z,51.30
2018-03-29T15:57:18.144Z,51.30
2018-03-29T15:59:47.384Z,50.70
2018-03-29T16:02:22.386Z,51.20
2018-03-29T16:04:53.254Z,51.70
2018-03-29T16:07:22.069Z,50.90
2018-03-29T16:09:51.124Z,51.50
2018-03-29T16:14:58.565Z,49.60
2018-03-29T16:17:27.469Z,49.50
2018-03-29T16:19:57.937Z,49.00
2018-03-29T16:22:26.763Z,49.00
2018-03-29T16:24:55.587Z,49.10
2018-03-29T16:27:24.400Z,49.70
2018-03-29T16:29:54.308Z,48.40
2018-03-29T16:32:23.890Z,49.40
2018-03-29T16:34:53.224Z,49.50
2018-03-29T16:37:22.039Z,49.30
2018-03-29T16:39:50.853Z,49.30
2018-03-29T16:42:19.650Z,50.00
2018-03-29T16:44:49.230Z,50.30
2018-03-29T16:47:18.027Z,50.00
2018-03-29T16:49:46.859Z,50.50
2018-03-29T16:52:15.845Z,51.30
2018-03-29T16:54:45.566Z,51.70
2018-03-29T16:57:15.326Z,52.50
2018-03-29T16:59:44.136Z,53.10
2018-03-29T17:02:12.924Z,53.20
2018-03-29T17:04:41.719Z,53.80
2018-03-29T17:07:10.948Z,54.30
2018-03-29T17:09:41.643Z,54.20
2018-03-29T17:12:11.248Z,54.10
2018-03-29T17:14:40.042Z,54.10
2018-03-29T17:17:09.618Z,55.50
2018-03-29T17:19:39.135Z,55.40
2018-03-29T17:22:07.951Z,55.50
2018-03-29T17:24:37.526Z,56.60
2018-03-29T17:27:06.331Z,56.50
2018-03-29T17:29:35.882Z,55.90
2018-03-29T17:32:04.360Z,56.70
2018-03-29T17:34:33.592Z,58.40
2018-03-29T17:37:02.175Z,58.30
2018-03-29T17:39:31.648Z,58.60
2018-03-29T17:42:01.210Z,59.70
2018-03-29T17:44:30.661Z,59.70
2018-03-29T17:47:01.350Z,60.40
2018-03-29T17:52:23.714Z,61.20
2018-03-29T17:54:53.929Z,61.70
2018-03-29T17:57:23.991Z,61.70
2018-03-29T18:08:01.552Z,62.30
2018-03-29T18:10:35.064Z,62.20
2018-03-29T18:13:05.327Z,62.40
2018-03-29T18:15:34.390Z,63.10
2018-03-29T18:18:04.628Z,63.20
2018-03-29T18:20:33.466Z,63.80
2018-03-29T18:23:02.833Z,63.50
2018-03-29T18:25:33.547Z,63.50
2018-03-29T18:31:37.554Z,64.90
2018-03-29T18:34:07.152Z,65.60
2018-03-29T18:36:36.712Z,66.90
2018-03-29T18:39:04.842Z,66.90
2018-03-29T18:41:33.629Z,68.20
2018-03-29T18:44:02.471Z,67.80
2018-03-29T18:46:32.081Z,69.40
2018-03-29T18:49:00.880Z,69.30
2018-03-29T18:51:29.680Z,69.30
2018-03-29T18:53:58.481Z,71.20
2018-03-29T18:56:28.118Z,73.70
2018-03-29T18:58:57.083Z,73.70
2018-03-29T19:01:26.655Z,74.00
2018-03-29T19:03:55.463Z,73.80
2018-03-29T19:06:24.273Z,75.10
2018-03-29T19:08:53.852Z,73.60
2018-03-29T19:11:22.660Z,73.60
2018-03-29T19:13:51.667Z,73.90
2018-03-29T19:16:21.254Z,75.60
2018-03-29T19:18:51.013Z,75.60
2018-03-29T19:21:19.860Z,76.10
2018-03-29T19:23:49.550Z,76.80
2018-03-29T19:26:18.354Z,73.90
2018-03-29T19:28:47.165Z,74.10
2018-03-29T19:31:16.486Z,84.50
2018-03-29T19:33:46.055Z,95.20
2018-03-29T19:36:15.060Z,95.20
2018-03-29T19:38:43.640Z,97.50
2018-03-29T19:41:12.448Z,98.70
2018-03-29T19:43:42.028Z,99.90
2018-03-29T19:46:10.843Z,99.90
2018-03-29T19:48:40.417Z,99.90
2018-03-29T19:51:09.290Z,99.90
2018-03-29T19:53:37.872Z,99.90
2018-03-29T19:56:09.221Z,99.90
2018-03-29T19:58:38.686Z,99.90
2018-03-29T20:01:07.688Z,99.90
2018-03-29T20:03:37.056Z,99.90
2018-03-29T20:06:09.969Z,99.90
2018-03-29T20:08:40.540Z,99.90
2018-03-29T20:11:09.161Z,99.90
2018-03-29T20:13:40.310Z,99.90
2018-03-29T20:16:09.646Z,99.90
2018-03-29T20:18:39.461Z,99.90
2018-03-29T20:21:08.312Z,99.90
2018-03-29T20:23:37.125Z,99.90
2018-03-29T20:26:06.713Z,99.90
2018-03-29T20:28:35.557Z,99.90
2018-03-29T20:31:05.223Z,99.90
2018-03-29T20:33:34.596Z,99.90
2018-03-29T20:36:04.281Z,99.90
2018-03-29T20:41:11.181Z,99.90
2018-03-29T20:43:43.868Z,99.90
2018-03-29T20:46:12.682Z,99.90
2018-03-29T20:48:41.494Z,99.90
2018-03-29T20:51:10.300Z,99.90
2018-03-29T20:53:39.863Z,99.90
2018-03-29T20:56:08.677Z,99.90
2018-03-29T20:58:40.468Z,99.90
2018-03-29T21:01:09.300Z,99.90
2018-03-29T21:03:38.138Z,99.90
2018-03-29T21:06:07.724Z,99.90
2018-03-29T21:08:36.548Z,99.90
2018-03-29T21:11:05.358Z,99.90
2018-03-29T21:13:34.173Z,99.90
2018-03-29T21:16:02.992Z,99.90
2018-03-29T21:18:32.772Z,99.90
2018-03-29T21:21:01.633Z,99.90
2018-03-29T21:23:30.471Z,99.90
2018-03-29T21:25:59.272Z,99.90
2018-03-29T21:28:28.071Z,99.90
2018-03-29T21:30:57.670Z,99.90
2018-03-29T21:33:30.862Z,99.90
2018-03-29T21:41:06.988Z,99.90
2018-03-29T21:43:36.088Z,99.90
2018-03-29T21:46:05.487Z,99.90
2018-03-29T21:48:34.288Z,99.90
2018-03-29T21:51:03.110Z,99.90
2018-03-29T21:53:31.961Z,99.90
2018-03-29T21:56:00.766Z,99.90
2018-03-29T21:58:29.596Z,99.90
2018-03-29T22:00:58.415Z,99.90
2018-03-29T22:03:27.414Z,99.90
2018-03-29T22:05:56.989Z,99.90
2018-03-29T22:08:25.787Z,99.90
2018-03-29T22:10:54.592Z,99.90
2018-03-29T22:13:24.173Z,99.90
2018-03-29T22:18:25.724Z,99.90
2018-03-29T22:20:54.535Z,99.90
2018-03-29T22:23:23.346Z,99.90
2018-03-29T22:25:52.928Z,99.90
2018-03-29T22:28:21.726Z,99.90
2018-03-29T22:30:50.529Z,99.90
2018-03-29T22:33:20.119Z,99.90
2018-03-29T22:35:48.923Z,99.90
2018-03-29T22:38:18.136Z,99.90
2018-03-29T22:40:52.469Z,99.90
2018-03-29T22:43:22.196Z,99.90
2018-03-29T22:45:51.825Z,99.90
2018-03-29T22:48:20.403Z,99.90
2018-03-29T22:50:48.887Z,99.90
2018-03-29T22:53:17.696Z,99.90
2018-03-29T22:55:46.719Z,99.90
2018-03-29T22:58:16.297Z,99.90
2018-03-29T23:00:45.086Z,99.90
2018-03-29T23:03:13.890Z,99.90
2018-03-29T23:05:42.704Z,99.90
2018-03-29T23:08:12.588Z,99.90
2018-03-29T23:10:41.806Z,99.90
2018-03-29T23:13:10.932Z,99.90
2018-03-29T23:15:39.399Z,99.90
2018-03-29T23:18:08.721Z,99.90
2018-03-29T23:20:37.528Z,99.90
2018-03-29T23:23:06.319Z,99.90
2018-03-29T23:25:35.114Z,99.90
2018-03-29T23:28:03.900Z,99.90
2018-03-29T23:30:33.464Z,99.90
2018-03-29T23:33:03.024Z,99.90
2018-03-29T23:35:31.824Z,99.90
2018-03-29T23:38:00.632Z,99.90
2018-03-29T23:40:29.444Z,99.90
2018-03-29T23:42:59.011Z,99.90
2018-03-29T23:45:27.820Z,99.90
2018-03-29T23:47:56.620Z,99.90
2018-03-29T23:50:25.456Z,99.90
2018-03-29T23:52:54.259Z,99.90
2018-03-29T23:55:23.059Z,99.90
2018-03-29T23:58:02.960Z,99.90
